メインページ
METAR-TAF:

METAR-TAF

空港 :

シンガポール, シンガポール

シンガポール・チャンギ国際空港

緯度: 01-22N, 経度: 103-59E, 海抜: 5m

現時点の気象観測

当レポートは18分前の01:00(UTC)に作成
南/南西の風 8kt、から西/南西の間で変化する
気温 28°C
湿度 84%
気圧 1010 hPa
視程10km以上
高度1800ftの雲はほとんどない, 塔状積雲.
高度2000ftの雲はほとんどない, 積乱雲.
高度15000ftの雲は散在している

METAR: WSSS 230100Z 20008KT 170V240 9999 FEW018TCU FEW020CB SCT150 28/25 Q1010 NOSIG

時間: 09:18 (01:18 UTC)

予報

当レポートは48分前の00:30(UTC)に作成
予報は23日の 00時(UTC)から 24日の 06時(UTC)まで有効
の風 9kt
視程10km以上
高度1800ftの雲はほとんどない, 積乱雲.
高度2000ftの雲は散在している
24日の 02時(UTC)から 24日の 06時(UTC)まで一時的に
視程: 3000m
高度1200ftの雲はほとんどない, 積乱雲.
高度1500ftの千切れ雲あり
激しい雷雨, 雨

TAF: WSSS 230030Z 2300/2406 19009KT 9999 FEW018CB SCT020 TEMPO 2402/2406 3000 TSRA FEW012CB BKN015

4,000以上の空港の気象観測と天気予報(METAR報とTAF報)

利用可能な観測所は地図上に黄色い丸と赤い丸で示す。

丸の上にカーソルを重ねると観測所名を参照できる。

次にクリックすると気象観測と天気予報を参照できる。

マップの切り替え:黒色「×」印の緑ボタンをクリックして拡大、「-」印の緑ボタンをクリックして縮小、緑色の三角印をクリックして隣りの地図に切り替え


METAR-TAF: